This is the latest recevied weather packets stored in our database for station/object WA1RYQ. If no packets are shown the sender has not sent any weather packets the latest 10 day(s).
| Time | Temp. | Humidity | Pressure | Rain* | Wind** | Luminosity | Snow |
|---|---|---|---|---|---|---|---|
| 1777906845 | 25.56° C | 58% | 1017.3 hPa | 0 mm | - | 749 W/m² | - |
| 1777906559 | 26.11° C | 58% | 1017.2 hPa | 0 mm | - | 735 W/m² | - |
| 1777901119 | 23.33° C | 67% | 1016.8 hPa | 0 mm | - | 461 W/m² | - |
| 1777900840 | 23.33° C | 68% | 1016.8 hPa | 0 mm | - | 448 W/m² | - |
| 1777899931 | 23.33° C | 68% | 1016.7 hPa | 0 mm | - | 392 W/m² | - |
| 1777896022 | 20.56° C | 77% | 1016.3 hPa | 0 mm | - | 153 W/m² | - |
| 1777895113 | 19.44° C | 80% | 1016.3 hPa | 0 mm | - | 95 W/m² | - |
| 1777893642 | 18.33° C | 82% | 1016.2 hPa | 0 mm | - | 23 W/m² | - |
| 1777893364 | 18.33° C | 82% | 1016.1 hPa | 0 mm | - | 19 W/m² | - |
| 1777893302 | 18.33° C | 82% | 1016.1 hPa | 0 mm | - | 19 W/m² | - |
| 1777891829 | 18.33° C | 82% | 1016 hPa | 0 mm | - | 5 W/m² | - |
| 1777890308 | 18.33° C | 82% | 1016 hPa | 0 mm | - | 0 W/m² | - |
| 1777889461 | 18.33° C | 82% | 1015.8 hPa | 0 mm | - | 0 W/m² | - |
| 1777888845 | 18.33° C | 82% | 1015.9 hPa | 0 mm | - | 0 W/m² | - |
| 1777887947 | 18.89° C | 81% | 1015.8 hPa | 0 mm | - | 0 W/m² | - |
| 1777887655 | 18.89° C | 82% | 1015.8 hPa | 0 mm | - | 0 W/m² | - |
| 1777887037 | 18.89° C | 81% | 1015.7 hPa | 0 mm | - | 0 W/m² | - |
| 1777884626 | 20° C | 79% | 1015.7 hPa | 0 mm | - | 0 W/m² | - |
| 1777883156 | 20° C | 79% | 1015.8 hPa | 0 mm | - | 0 W/m² | - |
| 1777878028 | 21.11° C | 76% | 1016.3 hPa | 0 mm | - | 0 W/m² | - |
| 1777877749 | 21.11° C | 76% | 1016.4 hPa | 0 mm | - | 0 W/m² | - |
| 1777877410 | 21.11° C | 76% | 1016.5 hPa | 0 mm | - | 0 W/m² | - |
| 1777877128 | 21.11° C | 76% | 1016.5 hPa | 0 mm | - | 0 W/m² | - |
| 1777876234 | 21.11° C | 77% | 1016.4 hPa | 0 mm | - | 0 W/m² | - |
| 1777875946 | 21.11° C | 77% | 1016.3 hPa | 0 mm | - | 0 W/m² | - |
* Rain latest hour (hover to see other rain measurements)
** Current wind speed in m/s (hover to see current wind gust speed)